createdAt,value
2019-05-19T00:01:30.863Z,4.50
2019-05-19T00:03:59.531Z,5.10
2019-05-19T00:06:28.039Z,4.37
2019-05-19T00:08:56.803Z,4.47
2019-05-19T00:11:25.392Z,4.57
2019-05-19T00:13:55.032Z,5.90
2019-05-19T00:16:23.545Z,6.23
2019-05-19T00:18:52.361Z,6.50
2019-05-19T00:21:21.029Z,6.63
2019-05-19T00:23:49.527Z,7.00
2019-05-19T00:26:18.059Z,6.07
2019-05-19T00:28:46.563Z,6.30
2019-05-19T00:31:15.056Z,5.27
2019-05-19T00:33:43.646Z,5.60
2019-05-19T00:36:12.100Z,5.80
2019-05-19T00:38:40.599Z,5.33
2019-05-19T00:41:09.453Z,5.20
2019-05-19T00:43:37.949Z,4.80
2019-05-19T00:46:06.459Z,4.27
2019-05-19T00:48:34.956Z,3.80
2019-05-19T00:51:03.483Z,4.30
2019-05-19T00:53:31.987Z,4.93
2019-05-19T00:56:00.664Z,4.53
2019-05-19T00:58:29.419Z,5.20
2019-05-19T01:00:58.224Z,4.23
2019-05-19T01:03:27.507Z,4.20
2019-05-19T01:05:56.132Z,4.73
2019-05-19T01:08:24.625Z,5.07
2019-05-19T01:10:53.127Z,4.83
2019-05-19T01:13:21.662Z,4.87
2019-05-19T01:15:50.165Z,5.20
2019-05-19T01:18:18.926Z,6.10
2019-05-19T01:20:47.420Z,5.47
2019-05-19T01:23:15.920Z,5.40
2019-05-19T01:25:44.771Z,4.97
2019-05-19T01:28:13.260Z,5.20
2019-05-19T01:30:42.049Z,4.97
2019-05-19T01:33:10.907Z,5.23
2019-05-19T01:35:40.058Z,5.23
2019-05-19T01:38:08.547Z,5.17
2019-05-19T01:40:37.101Z,5.20
2019-05-19T01:43:05.838Z,6.13
2019-05-19T01:45:34.331Z,5.10
2019-05-19T01:48:02.825Z,6.13
2019-05-19T01:50:31.562Z,5.80
2019-05-19T01:53:00.072Z,6.57
2019-05-19T01:55:28.909Z,6.50
2019-05-19T01:57:57.412Z,6.33
2019-05-19T02:00:26.206Z,4.90
2019-05-19T02:02:54.737Z,4.37
2019-05-19T02:05:23.290Z,4.83
2019-05-19T02:07:51.794Z,4.77
2019-05-19T02:10:20.331Z,5.30
2019-05-19T02:12:49.161Z,5.00
2019-05-19T02:15:17.659Z,5.40
2019-05-19T02:17:47.734Z,5.60
2019-05-19T02:20:16.245Z,5.20
2019-05-19T02:22:44.741Z,4.30
2019-05-19T02:25:13.511Z,5.53
2019-05-19T02:27:42.014Z,4.70
2019-05-19T02:30:10.571Z,4.80
2019-05-19T02:32:39.194Z,5.60
2019-05-19T02:35:07.770Z,5.60
2019-05-19T02:37:36.259Z,5.27
2019-05-19T02:40:05.434Z,5.40
2019-05-19T02:42:34.429Z,5.53
2019-05-19T02:45:03.081Z,6.93
2019-05-19T02:47:31.887Z,5.60
2019-05-19T02:50:00.681Z,5.70
2019-05-19T02:52:29.458Z,5.37
2019-05-19T02:54:57.977Z,4.93
2019-05-19T02:57:26.529Z,5.53
2019-05-19T02:59:55.056Z,5.90
2019-05-19T03:02:23.634Z,5.70
2019-05-19T03:04:52.152Z,5.57
2019-05-19T03:07:21.000Z,6.20
2019-05-19T03:09:49.827Z,5.00
2019-05-19T03:12:18.388Z,5.50
2019-05-19T03:14:46.881Z,5.60
2019-05-19T03:17:15.409Z,6.10
2019-05-19T03:19:44.503Z,5.93
2019-05-19T03:22:13.026Z,6.30
2019-05-19T03:24:41.800Z,6.33
2019-05-19T03:27:10.449Z,6.10
2019-05-19T03:29:43.413Z,6.37
2019-05-19T03:32:36.821Z,6.43
2019-05-19T03:35:05.397Z,6.93
2019-05-19T03:37:34.143Z,6.40
2019-05-19T03:40:04.906Z,6.90
2019-05-19T03:42:33.461Z,7.63
2019-05-19T03:45:02.338Z,6.93
2019-05-19T03:47:30.840Z,6.43
2019-05-19T03:49:59.416Z,5.37
2019-05-19T03:52:27.962Z,5.40
2019-05-19T03:54:56.599Z,5.90
2019-05-19T03:57:25.779Z,5.70
2019-05-19T03:59:54.298Z,5.80
2019-05-19T04:02:22.809Z,5.80
2019-05-19T04:04:51.607Z,8.13
2019-05-19T04:07:20.151Z,10.13
2019-05-19T04:09:48.685Z,10.40
2019-05-19T04:12:17.249Z,9.40
2019-05-19T04:14:46.050Z,8.43
2019-05-19T04:17:14.589Z,7.60
2019-05-19T04:19:43.765Z,6.37
2019-05-19T04:22:12.306Z,6.47
2019-05-19T04:24:44.029Z,6.87
2019-05-19T04:27:12.597Z,8.70
2019-05-19T04:29:41.126Z,8.23
2019-05-19T04:32:09.638Z,8.37
2019-05-19T04:34:38.173Z,11.90
2019-05-19T04:37:06.704Z,11.50
2019-05-19T04:39:35.223Z,12.07
2019-05-19T04:42:03.806Z,11.20
2019-05-19T04:44:32.656Z,11.90
2019-05-19T04:47:01.193Z,12.60
2019-05-19T04:49:29.727Z,11.27
2019-05-19T04:52:06.825Z,11.10
2019-05-19T04:54:29.053Z,11.10
2019-05-19T04:56:57.577Z,12.03
2019-05-19T04:59:26.185Z,10.50
2019-05-19T05:01:54.713Z,10.23
2019-05-19T05:04:28.790Z,10.00
2019-05-19T05:06:53.826Z,10.30
2019-05-19T05:09:22.355Z,10.07
2019-05-19T05:11:51.178Z,11.00
2019-05-19T05:14:19.709Z,9.50
2019-05-19T05:16:48.252Z,9.67
2019-05-19T05:19:16.784Z,9.90
2019-05-19T05:21:45.453Z,9.73
2019-05-19T05:24:13.976Z,10.07
2019-05-19T05:26:42.744Z,9.50
2019-05-19T05:29:11.540Z,9.20
2019-05-19T05:31:40.065Z,10.40
2019-05-19T05:34:08.850Z,9.90
2019-05-19T05:36:37.366Z,10.47
2019-05-19T05:39:06.579Z,10.10
2019-05-19T05:41:35.336Z,9.47
2019-05-19T05:44:03.877Z,9.33
2019-05-19T05:46:32.427Z,9.10
2019-05-19T05:49:01.312Z,8.67
2019-05-19T05:51:30.099Z,9.57
2019-05-19T05:53:58.726Z,7.90
2019-05-19T05:56:27.282Z,7.93
2019-05-19T05:58:55.883Z,8.50
2019-05-19T06:01:24.453Z,7.70
2019-05-19T06:03:53.311Z,7.43
2019-05-19T06:06:21.837Z,8.00
2019-05-19T06:08:50.445Z,7.43
2019-05-19T06:11:19.223Z,7.27
2019-05-19T06:13:49.515Z,9.33
2019-05-19T06:16:17.955Z,7.27
2019-05-19T06:18:46.475Z,7.17
2019-05-19T06:21:15.036Z,7.40
2019-05-19T06:23:43.571Z,7.50
2019-05-19T06:26:12.091Z,6.57
2019-05-19T06:28:40.622Z,6.90
2019-05-19T06:31:09.152Z,6.77
2019-05-19T06:33:37.900Z,6.70
2019-05-19T06:36:06.422Z,6.83
2019-05-19T06:38:35.271Z,7.57
2019-05-19T06:41:03.920Z,6.93
2019-05-19T06:43:32.722Z,6.90
2019-05-19T06:46:01.276Z,6.60
2019-05-19T06:48:29.811Z,7.53
2019-05-19T06:50:58.606Z,6.00
2019-05-19T06:53:27.139Z,6.57
2019-05-19T06:55:55.691Z,7.10
2019-05-19T06:58:24.466Z,6.30
2019-05-19T07:00:53.077Z,6.50
2019-05-19T07:03:21.947Z,6.30
2019-05-19T07:05:50.476Z,6.23
2019-05-19T07:08:19.123Z,6.90
2019-05-19T07:10:47.639Z,7.20
2019-05-19T07:13:16.428Z,6.60
2019-05-19T07:15:44.957Z,6.27
2019-05-19T07:18:13.479Z,6.00
2019-05-19T07:20:42.028Z,6.07
2019-05-19T07:23:11.068Z,5.83
2019-05-19T07:25:39.980Z,6.17
2019-05-19T07:28:08.551Z,6.87
2019-05-19T07:30:37.185Z,7.13
2019-05-19T07:33:05.946Z,7.00
2019-05-19T07:35:34.474Z,7.10
2019-05-19T07:38:03.676Z,6.97
2019-05-19T07:40:32.552Z,6.80
2019-05-19T07:43:01.454Z,9.70
2019-05-19T07:45:30.080Z,7.23
2019-05-19T07:47:59.243Z,7.67
2019-05-19T07:50:27.840Z,8.23
2019-05-19T07:52:56.507Z,7.63
2019-05-19T07:55:26.177Z,7.50
2019-05-19T07:57:55.073Z,7.50
2019-05-19T08:00:24.020Z,7.20
2019-05-19T08:02:52.602Z,6.07
2019-05-19T08:05:21.435Z,5.33
2019-05-19T08:07:50.033Z,6.37
2019-05-19T08:10:18.553Z,7.60
2019-05-19T08:12:47.008Z,7.70
2019-05-19T08:15:15.548Z,7.17
2019-05-19T08:17:44.095Z,6.80
2019-05-19T08:20:12.625Z,7.20
2019-05-19T08:22:41.169Z,6.77
2019-05-19T08:25:09.748Z,6.70
2019-05-19T08:27:38.685Z,6.43
2019-05-19T08:30:07.644Z,6.77
2019-05-19T08:32:36.227Z,5.70
2019-05-19T08:35:04.851Z,6.27
2019-05-19T08:37:33.437Z,6.53
2019-05-19T08:40:01.995Z,6.57
2019-05-19T08:42:30.764Z,6.10
2019-05-19T08:44:59.339Z,6.70
2019-05-19T08:47:27.942Z,6.23
2019-05-19T08:49:56.441Z,4.57
2019-05-19T08:52:24.960Z,5.40
2019-05-19T08:54:53.768Z,5.70
2019-05-19T08:57:22.587Z,6.70
2019-05-19T08:59:51.096Z,5.90
2019-05-19T09:02:19.621Z,6.00
2019-05-19T09:04:48.124Z,5.90
2019-05-19T09:07:17.136Z,5.33
2019-05-19T09:09:45.649Z,5.70
2019-05-19T09:12:14.164Z,4.90
2019-05-19T09:14:42.684Z,4.10
2019-05-19T09:17:11.224Z,3.43
2019-05-19T09:19:39.734Z,3.53
2019-05-19T09:22:08.284Z,4.40
2019-05-19T09:24:37.416Z,3.30
2019-05-19T09:27:06.165Z,2.97
2019-05-19T09:29:34.625Z,2.80
2019-05-19T09:32:03.153Z,3.00
2019-05-19T09:34:31.976Z,3.10
2019-05-19T09:37:00.735Z,2.80
2019-05-19T09:39:29.255Z,2.40
2019-05-19T09:41:58.004Z,1.90
2019-05-19T09:44:26.534Z,1.87
2019-05-19T09:46:55.127Z,2.27
2019-05-19T09:49:35.841Z,1.40
2019-05-19T09:52:05.228Z,2.40
2019-05-19T09:54:44.666Z,2.60
2019-05-19T09:57:04.303Z,1.50
2019-05-19T09:59:32.832Z,2.80
2019-05-19T10:02:01.446Z,2.00
2019-05-19T10:04:30.243Z,2.30
2019-05-19T10:06:59.201Z,2.27
2019-05-19T10:09:55.212Z,1.53
2019-05-19T10:12:24.040Z,1.90
2019-05-19T10:14:52.576Z,2.40
2019-05-19T10:17:21.421Z,2.27
2019-05-19T10:19:50.053Z,2.10
2019-05-19T10:22:19.094Z,2.13
2019-05-19T10:25:03.922Z,2.37
2019-05-19T10:27:21.392Z,2.30
2019-05-19T10:29:48.133Z,1.73
2019-05-19T10:32:17.401Z,2.20
2019-05-19T10:34:45.947Z,1.90
2019-05-19T10:37:14.449Z,1.60
2019-05-19T10:39:43.525Z,1.60
2019-05-19T10:42:12.474Z,1.60
2019-05-19T10:44:41.312Z,1.73
2019-05-19T10:47:09.829Z,1.70
2019-05-19T10:49:38.595Z,1.67
2019-05-19T10:52:07.125Z,1.83
2019-05-19T10:54:35.644Z,2.87
2019-05-19T10:57:04.185Z,2.40
2019-05-19T10:59:32.997Z,2.07
2019-05-19T11:02:01.785Z,2.33
2019-05-19T11:04:30.288Z,1.90
2019-05-19T11:06:58.809Z,1.90
2019-05-19T11:09:27.329Z,1.80
2019-05-19T11:11:56.081Z,3.43
2019-05-19T11:14:24.903Z,2.10
2019-05-19T11:16:53.415Z,2.23
2019-05-19T11:19:22.033Z,2.20
2019-05-19T11:21:50.584Z,2.20
2019-05-19T11:24:19.104Z,2.20
2019-05-19T11:26:47.623Z,2.43
2019-05-19T11:29:16.139Z,2.57
2019-05-19T11:31:44.656Z,2.47
2019-05-19T11:34:13.152Z,2.27
2019-05-19T11:36:41.711Z,2.20
2019-05-19T11:39:10.578Z,2.90
2019-05-19T11:41:39.383Z,2.50
2019-05-19T11:44:07.992Z,2.57
2019-05-19T11:46:36.855Z,2.40
2019-05-19T11:49:06.145Z,2.50
2019-05-19T11:51:34.663Z,2.87
2019-05-19T11:54:03.632Z,2.33
2019-05-19T11:56:32.141Z,2.17
2019-05-19T11:59:00.704Z,3.10
2019-05-19T12:01:29.177Z,2.43
2019-05-19T12:03:57.683Z,3.03
2019-05-19T12:06:38.918Z,2.63
2019-05-19T12:08:56.786Z,2.57
2019-05-19T12:11:25.298Z,1.90
2019-05-19T12:13:53.817Z,2.40
2019-05-19T12:16:22.333Z,3.00
2019-05-19T12:18:51.227Z,1.97
2019-05-19T12:21:19.750Z,1.73
2019-05-19T12:23:48.596Z,2.40
2019-05-19T12:26:23.263Z,2.60
2019-05-19T12:28:47.726Z,1.90
2019-05-19T12:31:16.232Z,2.10
2019-05-19T12:33:52.105Z,2.00
2019-05-19T12:36:15.798Z,2.10
2019-05-19T12:38:44.341Z,2.23
2019-05-19T12:41:12.827Z,2.27
2019-05-19T12:43:41.439Z,2.93
2019-05-19T12:46:16.492Z,2.30
2019-05-19T12:48:40.910Z,2.47
2019-05-19T12:51:09.675Z,2.27
2019-05-19T12:53:38.201Z,2.50
2019-05-19T12:56:06.963Z,2.37
2019-05-19T12:58:35.736Z,2.00
2019-05-19T13:01:04.257Z,2.30
2019-05-19T13:03:32.794Z,2.33
2019-05-19T13:06:01.283Z,1.90
2019-05-19T13:08:30.117Z,2.70
2019-05-19T13:10:58.702Z,2.73
2019-05-19T13:13:27.244Z,2.57
2019-05-19T13:15:55.746Z,2.50
2019-05-19T13:18:24.537Z,2.50
2019-05-19T13:20:53.049Z,2.50
2019-05-19T13:23:21.583Z,2.67
2019-05-19T13:25:50.324Z,2.07
2019-05-19T13:28:18.916Z,2.40
2019-05-19T13:30:47.509Z,2.30
2019-05-19T13:33:16.013Z,2.27
2019-05-19T13:35:44.531Z,2.90
2019-05-19T13:38:13.049Z,2.43
2019-05-19T13:40:41.574Z,3.00
2019-05-19T13:43:10.102Z,2.70
2019-05-19T13:45:38.662Z,2.00
2019-05-19T13:48:07.196Z,2.83
2019-05-19T13:50:35.723Z,2.70
2019-05-19T13:53:05.145Z,2.10
2019-05-19T13:55:33.763Z,3.07
2019-05-19T13:58:03.605Z,2.60
2019-05-19T14:00:32.180Z,2.20
2019-05-19T14:03:00.843Z,2.43
2019-05-19T14:05:29.916Z,2.93
2019-05-19T14:07:58.677Z,3.00
2019-05-19T14:10:27.309Z,2.63
2019-05-19T14:12:55.824Z,2.47
2019-05-19T14:15:24.618Z,2.40
2019-05-19T14:17:53.159Z,2.60
2019-05-19T14:20:21.775Z,3.97
2019-05-19T14:22:50.303Z,4.03
2019-05-19T14:25:18.821Z,2.90
2019-05-19T14:27:47.336Z,2.53
2019-05-19T14:30:16.181Z,2.90
2019-05-19T14:32:44.705Z,3.07
2019-05-19T14:35:13.241Z,3.33
2019-05-19T14:37:41.768Z,2.77
2019-05-19T14:40:10.280Z,3.00
2019-05-19T14:43:03.663Z,3.00
2019-05-19T14:45:32.444Z,2.47
2019-05-19T14:48:01.011Z,3.00
2019-05-19T14:50:29.539Z,2.60
2019-05-19T14:52:58.046Z,4.27
2019-05-19T14:55:26.635Z,2.70
2019-05-19T14:57:55.411Z,3.60
2019-05-19T15:00:24.000Z,2.90
2019-05-19T15:02:52.515Z,2.70
2019-05-19T15:05:21.051Z,2.97
2019-05-19T15:07:51.282Z,2.80
2019-05-19T15:10:19.756Z,2.80
2019-05-19T15:12:48.621Z,2.80
2019-05-19T15:15:17.635Z,3.23
2019-05-19T15:17:46.174Z,2.70
2019-05-19T15:20:15.568Z,2.60
2019-05-19T15:22:44.383Z,3.27
2019-05-19T15:25:13.124Z,3.60
2019-05-19T15:27:41.636Z,2.70
2019-05-19T15:30:13.644Z,2.30
2019-05-19T15:32:40.387Z,2.50
2019-05-19T15:35:09.170Z,2.17
2019-05-19T15:37:37.747Z,2.60
2019-05-19T15:40:06.396Z,2.00
2019-05-19T15:42:35.421Z,2.33
2019-05-19T15:45:03.967Z,2.30
2019-05-19T15:47:32.482Z,2.00
2019-05-19T15:50:01.000Z,2.17
2019-05-19T15:52:29.518Z,2.30
2019-05-19T15:54:58.063Z,2.50
2019-05-19T15:57:28.612Z,2.47
2019-05-19T15:59:57.185Z,2.43
2019-05-19T16:02:25.676Z,2.07
2019-05-19T16:04:54.734Z,3.00
2019-05-19T16:07:23.568Z,2.17
2019-05-19T16:09:52.060Z,2.63
2019-05-19T16:12:20.639Z,2.57
2019-05-19T16:14:49.168Z,2.80
2019-05-19T16:17:17.666Z,2.87
2019-05-19T16:19:46.177Z,3.27
2019-05-19T16:22:15.045Z,3.30
2019-05-19T16:24:43.633Z,3.77
2019-05-19T16:27:12.897Z,3.43
2019-05-19T16:29:41.915Z,4.03
2019-05-19T16:32:10.439Z,4.27
2019-05-19T16:34:38.992Z,3.73
2019-05-19T16:37:07.870Z,3.47
2019-05-19T16:39:36.711Z,3.77
2019-05-19T16:42:05.470Z,3.20
2019-05-19T16:44:34.277Z,3.40
2019-05-19T16:47:03.039Z,3.37
2019-05-19T16:49:31.833Z,3.70
2019-05-19T16:52:00.379Z,3.57
2019-05-19T16:54:33.285Z,3.50
2019-05-19T16:57:02.149Z,3.20
2019-05-19T16:59:30.656Z,3.10
2019-05-19T17:01:59.487Z,3.30
2019-05-19T17:04:28.000Z,3.33
2019-05-19T17:06:56.515Z,2.90
2019-05-19T17:09:25.350Z,3.50
2019-05-19T17:11:53.843Z,3.33
2019-05-19T17:14:22.459Z,2.93
2019-05-19T17:16:51.519Z,3.10
2019-05-19T17:19:20.324Z,3.10
2019-05-19T17:21:48.828Z,2.60
2019-05-19T17:24:17.683Z,3.13
2019-05-19T17:26:46.293Z,3.40
2019-05-19T17:29:14.808Z,3.53
2019-05-19T17:31:43.375Z,2.57
2019-05-19T17:34:11.876Z,2.97
2019-05-19T17:36:40.379Z,2.87
2019-05-19T17:39:08.883Z,6.27
2019-05-19T17:41:37.398Z,3.27
2019-05-19T17:44:05.920Z,2.80
2019-05-19T17:46:34.439Z,2.97
2019-05-19T17:49:02.955Z,3.57
2019-05-19T17:51:31.456Z,3.80
2019-05-19T17:54:00.228Z,3.20
2019-05-19T17:56:28.848Z,2.97
2019-05-19T17:58:57.413Z,3.10
2019-05-19T18:01:26.260Z,3.27
2019-05-19T18:03:54.763Z,3.33
2019-05-19T18:06:23.268Z,2.93
2019-05-19T18:08:51.771Z,3.57
2019-05-19T18:11:20.284Z,3.10
2019-05-19T18:13:48.815Z,3.03
2019-05-19T18:16:17.356Z,3.63
2019-05-19T18:18:45.878Z,3.00
2019-05-19T18:21:14.644Z,3.30
2019-05-19T18:23:43.130Z,3.53
2019-05-19T18:26:11.642Z,3.30
2019-05-19T18:28:40.189Z,3.50
2019-05-19T18:31:08.697Z,3.60
2019-05-19T18:33:37.945Z,3.53
2019-05-19T18:36:06.472Z,3.27
2019-05-19T18:38:34.991Z,3.83
2019-05-19T18:41:03.545Z,4.03
2019-05-19T18:43:32.135Z,3.40
2019-05-19T18:46:00.642Z,3.30
2019-05-19T18:48:29.440Z,3.33
2019-05-19T18:50:58.352Z,3.30
2019-05-19T18:53:27.364Z,3.80
2019-05-19T18:55:55.880Z,4.03
2019-05-19T18:58:24.413Z,3.73
2019-05-19T19:00:53.203Z,4.17
2019-05-19T19:03:21.815Z,3.33
2019-05-19T19:05:50.348Z,3.90
2019-05-19T19:08:18.849Z,4.13
2019-05-19T19:10:47.363Z,3.83
2019-05-19T19:13:15.964Z,4.20
2019-05-19T19:15:44.485Z,3.57
2019-05-19T19:18:12.999Z,3.60
2019-05-19T19:20:41.521Z,3.80
2019-05-19T19:23:10.105Z,4.00
2019-05-19T19:25:38.661Z,4.03
2019-05-19T19:28:07.435Z,4.50
2019-05-19T19:30:35.943Z,4.33
2019-05-19T19:33:04.843Z,4.47
2019-05-19T19:35:39.197Z,5.30
2019-05-19T19:38:03.649Z,3.80
2019-05-19T19:40:32.497Z,3.57
2019-05-19T19:43:01.126Z,3.23
2019-05-19T19:45:29.634Z,3.43
2019-05-19T19:47:58.473Z,3.03
2019-05-19T19:50:27.293Z,3.17
2019-05-19T19:52:55.920Z,3.47
2019-05-19T19:55:24.447Z,4.53
2019-05-19T19:57:54.491Z,4.00
2019-05-19T20:00:42.959Z,3.47
2019-05-19T20:03:11.593Z,3.73
2019-05-19T20:05:40.374Z,3.30
2019-05-19T20:08:09.186Z,3.90
2019-05-19T20:10:37.813Z,3.33
2019-05-19T20:13:06.346Z,4.30
2019-05-19T20:15:35.631Z,3.83
2019-05-19T20:18:04.193Z,3.80
2019-05-19T20:20:33.038Z,3.10
2019-05-19T20:23:01.947Z,4.10
2019-05-19T20:25:30.520Z,3.37
2019-05-19T20:27:59.131Z,3.87
2019-05-19T20:30:35.687Z,3.60
2019-05-19T20:32:57.937Z,4.20
2019-05-19T20:35:26.490Z,3.10
2019-05-19T20:37:55.008Z,4.20
2019-05-19T20:40:23.956Z,3.30
2019-05-19T20:42:53.073Z,3.33
2019-05-19T20:45:21.588Z,3.63
2019-05-19T20:47:50.105Z,2.87
2019-05-19T20:50:19.193Z,2.83
2019-05-19T20:52:47.953Z,4.30
2019-05-19T20:55:16.470Z,2.90
2019-05-19T20:57:45.836Z,3.17
2019-05-19T21:00:14.689Z,2.87
2019-05-19T21:02:43.422Z,3.13
2019-05-19T21:05:11.926Z,2.97
2019-05-19T21:07:40.774Z,2.77
2019-05-19T21:10:09.285Z,2.63
2019-05-19T21:12:37.798Z,3.33
2019-05-19T21:15:06.399Z,3.90
2019-05-19T21:17:34.935Z,3.27
2019-05-19T21:20:03.830Z,3.70
2019-05-19T21:22:32.387Z,3.10
2019-05-19T21:25:00.911Z,3.27
2019-05-19T21:27:29.663Z,2.97
2019-05-19T21:29:58.196Z,3.20
2019-05-19T21:32:26.705Z,3.40
2019-05-19T21:34:55.245Z,2.70
2019-05-19T21:37:24.076Z,3.87
2019-05-19T21:39:53.094Z,3.03
2019-05-19T21:42:21.610Z,3.20
2019-05-19T21:44:50.184Z,3.50
2019-05-19T21:47:18.997Z,3.53
2019-05-19T21:49:47.484Z,3.73
2019-05-19T21:52:17.572Z,3.77
2019-05-19T21:54:46.428Z,3.40
2019-05-19T21:57:14.932Z,5.03
2019-05-19T21:59:43.451Z,4.10
2019-05-19T22:02:12.003Z,3.60
2019-05-19T22:04:40.533Z,4.37
2019-05-19T22:07:15.856Z,4.17
2019-05-19T22:09:44.715Z,4.40
2019-05-19T22:12:13.495Z,4.27
2019-05-19T22:14:42.014Z,4.17
2019-05-19T22:17:10.866Z,5.10
2019-05-19T22:19:39.385Z,4.43
2019-05-19T22:22:07.940Z,4.33
2019-05-19T22:24:36.517Z,4.90
2019-05-19T22:27:05.634Z,4.40
2019-05-19T22:29:34.158Z,4.87
2019-05-19T22:32:02.661Z,5.50
2019-05-19T22:34:31.189Z,5.10
2019-05-19T22:36:59.709Z,5.73
2019-05-19T22:39:28.553Z,5.83
2019-05-19T22:41:57.089Z,6.57
2019-05-19T22:44:25.582Z,5.70
2019-05-19T22:46:54.097Z,6.37
2019-05-19T22:49:22.601Z,7.60
2019-05-19T22:51:51.116Z,6.10
2019-05-19T22:54:19.612Z,5.90
2019-05-19T22:56:48.128Z,7.60
2019-05-19T22:59:19.770Z,7.13
2019-05-19T23:01:51.672Z,6.23
2019-05-19T23:04:17.460Z,6.97
2019-05-19T23:06:46.248Z,6.63
2019-05-19T23:09:14.765Z,7.40
2019-05-19T23:11:43.637Z,7.37
2019-05-19T23:14:12.403Z,7.87
2019-05-19T23:16:40.933Z,8.03
2019-05-19T23:19:09.448Z,8.30
2019-05-19T23:21:37.964Z,7.77
2019-05-19T23:24:06.487Z,7.77
2019-05-19T23:26:35.001Z,8.57
2019-05-19T23:29:03.543Z,9.10
2019-05-19T23:31:32.466Z,9.13
2019-05-19T23:34:00.994Z,9.07
2019-05-19T23:36:29.491Z,9.23
2019-05-19T23:38:58.019Z,8.63
2019-05-19T23:41:26.871Z,9.80
2019-05-19T23:43:55.391Z,9.30
2019-05-19T23:46:24.521Z,10.80
2019-05-19T23:48:53.269Z,9.50
2019-05-19T23:51:21.778Z,10.40
2019-05-19T23:53:50.293Z,13.10
2019-05-19T23:56:18.904Z,9.93
2019-05-19T23:58:47.413Z,11.00
